createdAt,value
2024-03-16T00:00:28.867Z,79.40
2024-03-16T00:03:16.920Z,76.40
2024-03-16T00:05:45.197Z,80.70
2024-03-16T00:08:13.173Z,80.80
2024-03-16T00:10:41.046Z,80.20
2024-03-16T00:13:09.070Z,85.10
2024-03-16T00:15:37.064Z,80.10
2024-03-16T00:18:05.365Z,81.40
2024-03-16T00:20:33.422Z,82.20
2024-03-16T00:23:02.321Z,73.40
2024-03-16T00:25:30.277Z,88.00
2024-03-16T00:27:58.518Z,78.40
2024-03-16T00:30:26.993Z,78.90
2024-03-16T00:32:55.829Z,74.10
2024-03-16T00:35:24.092Z,74.60
2024-03-16T00:37:52.201Z,72.30
2024-03-16T00:40:21.129Z,74.00
2024-03-16T00:42:49.371Z,67.50
2024-03-16T00:45:17.403Z,68.10
2024-03-16T00:47:45.561Z,62.50
2024-03-16T00:50:15.833Z,65.70
2024-03-16T00:52:43.966Z,62.90
2024-03-16T00:55:12.291Z,72.70
2024-03-16T00:57:40.709Z,67.40
2024-03-16T01:00:10.806Z,67.60
2024-03-16T01:02:40.555Z,66.40
2024-03-16T01:05:08.958Z,62.60
2024-03-16T01:07:37.573Z,67.80
2024-03-16T01:10:06.650Z,66.70
2024-03-16T01:12:34.977Z,61.00
2024-03-16T01:15:03.128Z,66.10
2024-03-16T01:17:31.075Z,66.00
2024-03-16T01:19:59.407Z,69.90
2024-03-16T01:22:27.484Z,68.70
2024-03-16T01:24:55.513Z,64.80
2024-03-16T01:27:23.435Z,78.10
2024-03-16T01:29:51.328Z,81.60
2024-03-16T01:32:19.459Z,82.40
2024-03-16T01:34:47.598Z,80.00
2024-03-16T01:37:15.690Z,78.40
2024-03-16T01:39:45.566Z,82.80
2024-03-16T01:42:14.412Z,75.30
2024-03-16T01:45:11.883Z,75.20
2024-03-16T01:47:40.035Z,84.00
2024-03-16T01:50:10.329Z,87.70
2024-03-16T01:52:38.472Z,91.20
2024-03-16T01:55:06.904Z,91.30
2024-03-16T01:57:35.453Z,83.30
2024-03-16T02:00:04.668Z,81.60
2024-03-16T02:02:38.214Z,80.10
2024-03-16T02:05:07.405Z,80.70
2024-03-16T02:07:40.094Z,78.60
2024-03-16T02:10:11.484Z,81.20
2024-03-16T02:12:39.975Z,78.40
2024-03-16T02:15:08.690Z,82.20
2024-03-16T02:17:37.886Z,81.10
2024-03-16T02:20:10.725Z,80.50
2024-03-16T02:22:38.733Z,78.80
2024-03-16T02:25:08.244Z,79.70
2024-03-16T02:27:36.754Z,83.40
2024-03-16T02:30:06.874Z,79.20
2024-03-16T02:32:35.154Z,78.70
2024-03-16T02:35:03.599Z,76.20
2024-03-16T02:37:31.577Z,72.40
2024-03-16T02:39:59.800Z,77.80
2024-03-16T02:42:28.691Z,76.00
2024-03-16T02:44:56.712Z,71.10
2024-03-16T02:47:25.618Z,77.40
2024-03-16T02:49:53.823Z,79.60
2024-03-16T02:52:21.737Z,77.70
2024-03-16T02:54:49.992Z,77.50
2024-03-16T02:57:18.021Z,75.50
2024-03-16T02:59:46.444Z,82.70
2024-03-16T03:02:15.558Z,73.60
2024-03-16T03:04:43.633Z,77.00
2024-03-16T03:07:11.822Z,76.30
2024-03-16T03:09:39.859Z,75.70
2024-03-16T03:12:08.561Z,74.20
2024-03-16T03:14:36.675Z,72.00
2024-03-16T03:17:04.718Z,77.80
2024-03-16T03:19:32.618Z,74.40
2024-03-16T03:22:00.711Z,76.10
2024-03-16T03:24:28.788Z,81.00
2024-03-16T03:26:57.096Z,73.50
2024-03-16T03:29:25.077Z,93.20
2024-03-16T03:31:53.259Z,83.40
2024-03-16T03:34:21.702Z,85.40
2024-03-16T03:36:50.447Z,83.60
2024-03-16T03:39:19.119Z,78.20
2024-03-16T03:41:47.579Z,77.40
2024-03-16T03:44:37.681Z,69.60
2024-03-16T03:47:05.815Z,69.60
2024-03-16T03:49:36.647Z,67.20
2024-03-16T03:52:06.105Z,67.60
2024-03-16T03:54:36.021Z,63.50
2024-03-16T03:57:05.428Z,61.30
2024-03-16T03:59:33.992Z,73.20
2024-03-16T04:02:02.189Z,75.50
2024-03-16T04:04:30.329Z,71.90
2024-03-16T04:06:58.386Z,65.30
2024-03-16T04:09:26.456Z,76.90
2024-03-16T04:11:54.539Z,74.00
2024-03-16T04:14:22.812Z,73.00
2024-03-16T04:16:50.902Z,70.50
2024-03-16T04:19:18.804Z,77.00
2024-03-16T04:21:51.394Z,75.90
2024-03-16T04:24:19.974Z,70.50
2024-03-16T04:26:47.877Z,72.90
2024-03-16T04:29:16.473Z,81.20
2024-03-16T04:31:44.409Z,72.70
2024-03-16T04:34:13.126Z,73.00
2024-03-16T04:36:42.032Z,80.60
2024-03-16T04:39:10.387Z,85.60
2024-03-16T04:41:38.457Z,74.10
2024-03-16T04:44:06.330Z,73.10
2024-03-16T04:46:34.811Z,81.60
2024-03-16T04:49:03.298Z,84.50
2024-03-16T04:51:31.835Z,84.80
2024-03-16T04:54:02.373Z,84.40
2024-03-16T04:56:30.465Z,80.20
2024-03-16T04:58:58.321Z,85.00
2024-03-16T05:01:27.309Z,99.90
2024-03-16T05:03:55.218Z,88.00
2024-03-16T05:06:23.371Z,84.20
2024-03-16T05:08:52.463Z,95.30
2024-03-16T05:11:20.604Z,86.80
2024-03-16T05:13:48.903Z,103.00
2024-03-16T05:16:17.132Z,102.90
2024-03-16T05:18:45.292Z,104.20
2024-03-16T05:21:13.715Z,98.20
2024-03-16T05:23:42.207Z,104.80
2024-03-16T05:26:10.097Z,113.80
2024-03-16T05:28:38.074Z,123.50
2024-03-16T05:31:06.760Z,113.10
2024-03-16T05:33:35.438Z,129.70
2024-03-16T05:36:06.498Z,113.90
2024-03-16T05:38:34.354Z,134.00
2024-03-16T05:41:02.315Z,160.10
2024-03-16T05:43:30.361Z,283.30
2024-03-16T05:45:58.443Z,229.20
2024-03-16T05:48:26.650Z,149.50
2024-03-16T05:50:54.912Z,140.80
2024-03-16T05:53:25.061Z,145.60
2024-03-16T05:55:53.076Z,163.10
2024-03-16T05:58:24.011Z,150.30
2024-03-16T06:00:52.084Z,136.40
2024-03-16T06:03:20.164Z,117.60
2024-03-16T06:05:48.333Z,118.50
2024-03-16T06:08:16.411Z,125.50
2024-03-16T06:10:45.310Z,125.70
2024-03-16T06:13:14.451Z,121.70
2024-03-16T06:15:42.475Z,128.80
2024-03-16T06:18:10.946Z,131.80
2024-03-16T06:20:39.241Z,128.70
2024-03-16T06:23:07.811Z,122.10
2024-03-16T06:25:48.450Z,121.40
2024-03-16T06:28:23.149Z,136.40
2024-03-16T06:30:56.947Z,88.90
2024-03-16T06:33:34.323Z,108.60
2024-03-16T06:36:02.526Z,112.30
2024-03-16T06:38:30.895Z,71.70
2024-03-16T06:40:59.047Z,63.50
2024-03-16T06:43:27.311Z,63.00
2024-03-16T06:45:55.179Z,80.70
2024-03-16T06:48:23.850Z,79.80
2024-03-16T06:50:53.062Z,68.70
2024-03-16T06:53:21.211Z,73.00
2024-03-16T06:55:52.624Z,77.80
2024-03-16T07:00:51.982Z,76.40
2024-03-16T07:03:20.489Z,63.60
2024-03-16T07:05:48.737Z,67.50
2024-03-16T07:08:18.650Z,58.40
2024-03-16T07:10:47.049Z,48.80
2024-03-16T07:13:15.245Z,56.70
2024-03-16T07:15:45.375Z,46.70
2024-03-16T07:18:13.549Z,34.60
2024-03-16T07:20:42.662Z,43.60
2024-03-16T07:23:10.760Z,47.10
2024-03-16T07:25:38.820Z,46.30
2024-03-16T07:28:09.208Z,47.00
2024-03-16T07:30:37.823Z,42.90
2024-03-16T07:33:06.037Z,39.30
2024-03-16T07:35:36.229Z,42.60
2024-03-16T07:38:05.939Z,41.70
2024-03-16T07:40:34.053Z,41.30
2024-03-16T07:43:03.078Z,38.20
2024-03-16T07:45:31.663Z,29.60
2024-03-16T07:47:59.879Z,33.40
2024-03-16T07:50:27.835Z,29.00
2024-03-16T07:52:55.805Z,32.00
2024-03-16T07:55:23.795Z,31.10
2024-03-16T07:57:52.171Z,32.00
2024-03-16T08:00:20.441Z,19.10
2024-03-16T08:02:48.473Z,19.20
2024-03-16T08:05:16.411Z,20.30
2024-03-16T08:07:45.609Z,25.40
2024-03-16T08:10:13.965Z,21.60
2024-03-16T08:12:42.878Z,25.70
2024-03-16T08:15:11.938Z,26.10
2024-03-16T08:17:39.946Z,21.90
2024-03-16T08:20:09.639Z,23.30
2024-03-16T08:22:37.660Z,26.20
2024-03-16T08:25:07.413Z,26.40
2024-03-16T08:27:37.836Z,24.40
2024-03-16T08:30:06.628Z,23.50
2024-03-16T08:32:34.818Z,27.40
2024-03-16T08:35:04.886Z,26.60
2024-03-16T08:37:33.321Z,28.20
2024-03-16T08:40:01.685Z,27.40
2024-03-16T08:42:30.544Z,26.40
2024-03-16T08:44:58.554Z,23.50
2024-03-16T08:47:26.899Z,25.20
2024-03-16T08:49:55.092Z,34.20
2024-03-16T08:52:25.504Z,28.30
2024-03-16T08:54:57.094Z,25.50
2024-03-16T08:57:25.937Z,25.50
2024-03-16T08:59:54.435Z,22.50
2024-03-16T09:02:25.439Z,21.60
2024-03-16T09:04:53.736Z,19.90
2024-03-16T09:07:21.727Z,20.00
2024-03-16T09:09:50.241Z,22.40
2024-03-16T09:12:18.437Z,23.80
2024-03-16T09:14:46.439Z,21.50
2024-03-16T09:17:14.336Z,21.60
2024-03-16T09:19:42.289Z,21.20
2024-03-16T09:22:10.557Z,22.60
2024-03-16T09:24:38.732Z,23.80
2024-03-16T09:27:06.736Z,22.30
2024-03-16T09:29:34.756Z,20.00
2024-03-16T09:32:02.800Z,25.80
2024-03-16T09:34:30.991Z,22.10
2024-03-16T09:36:58.994Z,25.90
2024-03-16T09:39:28.408Z,26.10
2024-03-16T09:41:58.531Z,21.50
2024-03-16T09:44:27.213Z,21.40
2024-03-16T09:46:56.364Z,21.10
2024-03-16T09:49:25.363Z,21.50
2024-03-16T09:51:55.005Z,20.30
2024-03-16T09:54:23.466Z,21.00
2024-03-16T09:56:51.622Z,20.00
2024-03-16T09:59:29.772Z,23.40
2024-03-16T10:02:01.376Z,25.10
2024-03-16T10:04:29.362Z,22.80
2024-03-16T10:06:57.611Z,24.90
2024-03-16T10:09:26.746Z,21.60
2024-03-16T10:11:56.121Z,21.90
2024-03-16T10:14:24.365Z,22.30
2024-03-16T10:16:52.280Z,24.00
2024-03-16T10:19:25.081Z,23.90
2024-03-16T10:21:54.839Z,24.00
2024-03-16T10:24:24.056Z,26.60
2024-03-16T10:26:52.126Z,24.00
2024-03-16T10:29:22.363Z,25.20
2024-03-16T10:31:55.001Z,22.50
2024-03-16T10:34:24.224Z,21.70
2024-03-16T10:36:53.182Z,22.00
2024-03-16T10:39:23.730Z,21.20
2024-03-16T10:41:53.981Z,25.70
2024-03-16T10:44:23.065Z,22.10
2024-03-16T10:46:51.337Z,22.40
2024-03-16T10:49:19.410Z,21.90
2024-03-16T10:51:47.481Z,23.50
2024-03-16T10:54:16.005Z,23.40
2024-03-16T10:56:46.140Z,21.80
2024-03-16T10:59:32.593Z,20.60
2024-03-16T11:02:02.157Z,20.60
2024-03-16T11:04:31.801Z,21.10
2024-03-16T11:06:59.865Z,20.40
2024-03-16T11:09:34.112Z,19.10
2024-03-16T11:12:03.207Z,19.90
2024-03-16T11:14:32.689Z,16.50
2024-03-16T11:17:01.157Z,17.10
2024-03-16T11:19:29.117Z,16.70
2024-03-16T11:22:01.385Z,22.40
2024-03-16T11:24:29.887Z,20.10
2024-03-16T11:26:57.857Z,20.20
2024-03-16T11:29:28.873Z,19.70
2024-03-16T11:31:58.090Z,21.10
2024-03-16T11:34:27.046Z,21.30
2024-03-16T11:36:56.318Z,19.40
2024-03-16T11:39:25.830Z,23.00
2024-03-16T11:42:04.880Z,18.30
2024-03-16T11:44:37.202Z,17.20
2024-03-16T11:47:06.386Z,16.70
2024-03-16T11:49:35.953Z,13.50
2024-03-16T11:52:05.915Z,16.20
2024-03-16T11:54:34.317Z,14.30
2024-03-16T11:57:02.365Z,14.40
2024-03-16T11:59:30.444Z,14.10
2024-03-16T12:01:59.325Z,15.30
2024-03-16T12:04:29.650Z,16.00
2024-03-16T12:07:00.586Z,15.80
2024-03-16T12:09:36.937Z,15.50
2024-03-16T12:12:09.025Z,14.50
2024-03-16T12:14:43.128Z,12.40
2024-03-16T12:17:12.633Z,14.10
2024-03-16T12:19:40.912Z,14.70
2024-03-16T12:22:16.198Z,14.50
2024-03-16T12:24:44.729Z,14.70
2024-03-16T12:27:13.631Z,14.00
2024-03-16T12:29:44.764Z,14.60
2024-03-16T12:32:13.040Z,12.90
2024-03-16T12:34:41.214Z,13.30
2024-03-16T12:37:09.316Z,12.70
2024-03-16T12:39:38.101Z,12.90
2024-03-16T12:42:07.431Z,11.50
2024-03-16T12:44:35.545Z,12.10
2024-03-16T12:47:03.786Z,11.80
2024-03-16T12:49:31.671Z,13.20
2024-03-16T12:51:59.759Z,10.90
2024-03-16T12:54:28.248Z,12.40
2024-03-16T12:56:56.534Z,13.10
2024-03-16T12:59:25.634Z,11.70
2024-03-16T13:01:53.584Z,13.10
2024-03-16T13:04:21.447Z,11.60
2024-03-16T13:06:49.422Z,11.40
2024-03-16T13:09:17.413Z,11.50
2024-03-16T13:11:45.564Z,11.40
2024-03-16T13:14:14.151Z,10.70
2024-03-16T13:16:42.136Z,11.80
2024-03-16T13:19:13.251Z,14.60
2024-03-16T13:21:41.985Z,12.30
2024-03-16T13:24:10.056Z,14.30
2024-03-16T13:26:38.246Z,12.70
2024-03-16T13:29:07.316Z,11.30
2024-03-16T13:31:35.560Z,11.00
2024-03-16T13:34:04.573Z,13.60
2024-03-16T13:36:32.621Z,14.40
2024-03-16T13:39:00.886Z,12.50
2024-03-16T13:41:28.778Z,12.20
2024-03-16T13:43:56.868Z,11.20
2024-03-16T13:46:25.519Z,12.10
2024-03-16T13:49:01.627Z,10.70
2024-03-16T13:51:33.776Z,11.30
2024-03-16T13:54:02.273Z,10.90
2024-03-16T13:56:33.878Z,10.70
2024-03-16T13:59:03.097Z,12.40
2024-03-16T14:01:31.241Z,10.70
2024-03-16T14:04:00.254Z,11.40
2024-03-16T14:06:29.244Z,10.40
2024-03-16T14:08:57.439Z,11.90
2024-03-16T14:11:26.069Z,9.90
2024-03-16T14:13:57.087Z,10.10
2024-03-16T14:18:53.315Z,8.90
2024-03-16T14:21:21.305Z,10.00
2024-03-16T14:23:49.413Z,10.70
2024-03-16T14:26:17.904Z,11.60
2024-03-16T14:28:46.655Z,12.10
2024-03-16T14:31:15.573Z,10.60
2024-03-16T14:33:43.798Z,10.50
2024-03-16T14:36:14.736Z,11.30
2024-03-16T14:38:43.372Z,8.80
2024-03-16T14:41:11.667Z,9.90
2024-03-16T14:43:39.723Z,9.00
2024-03-16T14:46:07.752Z,9.90
2024-03-16T14:48:36.440Z,12.80
2024-03-16T14:51:04.988Z,11.00
2024-03-16T14:53:33.346Z,12.20
2024-03-16T14:56:01.728Z,11.20
2024-03-16T14:58:29.609Z,13.30
2024-03-16T15:00:58.071Z,11.20
2024-03-16T15:03:26.244Z,10.00
2024-03-16T15:05:54.556Z,10.70
2024-03-16T15:08:23.241Z,12.30
2024-03-16T15:10:51.144Z,12.00
2024-03-16T15:13:19.748Z,10.50
2024-03-16T15:15:47.692Z,11.00
2024-03-16T15:18:15.887Z,11.30
2024-03-16T15:20:43.767Z,12.70
2024-03-16T15:23:12.272Z,10.70
2024-03-16T15:26:00.216Z,10.40
2024-03-16T15:28:34.715Z,11.40
2024-03-16T15:31:02.769Z,10.40
2024-03-16T15:33:32.338Z,12.00
2024-03-16T15:36:00.650Z,9.70
2024-03-16T15:38:28.733Z,10.30
2024-03-16T15:40:56.969Z,9.60
2024-03-16T15:43:25.467Z,11.20
2024-03-16T15:45:53.468Z,14.10
2024-03-16T15:48:22.272Z,14.20
2024-03-16T15:50:50.444Z,15.00
2024-03-16T15:53:18.487Z,15.40
2024-03-16T15:55:48.533Z,17.30
2024-03-16T15:58:18.431Z,16.20
2024-03-16T16:00:47.067Z,16.90
2024-03-16T16:03:15.173Z,18.40
2024-03-16T16:05:43.219Z,17.10
2024-03-16T16:08:11.655Z,21.10
2024-03-16T16:10:41.682Z,22.60
2024-03-16T16:13:13.152Z,22.90
2024-03-16T16:15:41.374Z,34.10
2024-03-16T16:18:09.331Z,24.70
2024-03-16T16:20:37.304Z,26.00
2024-03-16T16:23:08.145Z,32.30
2024-03-16T16:25:36.401Z,32.70
2024-03-16T16:28:09.681Z,41.60
2024-03-16T16:30:37.947Z,40.70
2024-03-16T16:33:09.062Z,42.40
2024-03-16T16:35:40.218Z,58.00
2024-03-16T16:38:08.248Z,63.80
2024-03-16T16:40:36.995Z,59.40
2024-03-16T16:43:05.932Z,49.70
2024-03-16T16:45:33.980Z,45.60
2024-03-16T16:48:02.158Z,50.30
2024-03-16T16:50:30.406Z,62.80
2024-03-16T16:52:58.289Z,63.30
2024-03-16T16:55:26.255Z,70.00
2024-03-16T16:57:54.341Z,62.40
2024-03-16T17:00:24.544Z,69.80
2024-03-16T17:02:52.870Z,88.20
2024-03-16T17:05:20.703Z,86.20
2024-03-16T17:07:48.683Z,75.50
